createdAt,value
2019-06-27T00:01:07.652Z,10.67
2019-06-27T00:03:34.827Z,9.33
2019-06-27T00:06:02.154Z,9.80
2019-06-27T00:08:30.848Z,9.73
2019-06-27T00:10:59.258Z,9.70
2019-06-27T00:13:26.829Z,8.83
2019-06-27T00:15:54.027Z,9.43
2019-06-27T00:18:21.214Z,11.07
2019-06-27T00:20:48.305Z,10.10
2019-06-27T00:23:15.572Z,10.50
2019-06-27T00:25:42.824Z,9.50
2019-06-27T00:28:10.084Z,9.07
2019-06-27T00:30:37.161Z,9.50
2019-06-27T00:33:04.281Z,8.90
2019-06-27T00:35:31.341Z,8.83
2019-06-27T00:37:58.512Z,9.67
2019-06-27T00:40:25.770Z,8.57
2019-06-27T00:42:52.965Z,10.43
2019-06-27T00:45:20.285Z,9.10
2019-06-27T00:47:47.422Z,8.70
2019-06-27T00:50:15.166Z,8.00
2019-06-27T00:52:42.380Z,7.97
2019-06-27T00:55:09.572Z,8.50
2019-06-27T00:57:36.778Z,8.10
2019-06-27T01:00:04.998Z,8.60
2019-06-27T01:02:32.218Z,9.17
2019-06-27T01:04:59.411Z,8.30
2019-06-27T01:07:26.910Z,8.90
2019-06-27T01:09:54.107Z,8.50
2019-06-27T01:12:21.294Z,8.13
2019-06-27T01:14:48.481Z,9.83
2019-06-27T01:17:16.070Z,8.43
2019-06-27T01:19:43.239Z,8.60
2019-06-27T01:22:10.411Z,8.27
2019-06-27T01:24:37.660Z,9.60
2019-06-27T01:27:04.808Z,9.40
2019-06-27T01:29:32.070Z,7.70
2019-06-27T01:31:59.421Z,8.70
2019-06-27T01:34:26.572Z,8.60
2019-06-27T01:36:53.815Z,8.67
2019-06-27T01:39:21.004Z,8.57
2019-06-27T01:41:48.347Z,8.60
2019-06-27T01:44:41.786Z,8.50
2019-06-27T01:47:09.453Z,7.90
2019-06-27T01:49:36.580Z,8.83
2019-06-27T01:52:04.037Z,7.60
2019-06-27T01:54:31.513Z,8.00
2019-06-27T01:56:58.706Z,9.17
2019-06-27T01:59:25.937Z,8.23
2019-06-27T02:01:53.182Z,8.43
2019-06-27T02:04:20.655Z,9.27
2019-06-27T02:06:47.989Z,7.80
2019-06-27T02:09:15.152Z,9.30
2019-06-27T02:11:42.249Z,8.23
2019-06-27T02:14:09.475Z,8.53
2019-06-27T02:16:37.055Z,8.80
2019-06-27T02:19:04.323Z,8.40
2019-06-27T02:21:31.577Z,7.97
2019-06-27T02:23:58.856Z,7.90
2019-06-27T02:26:26.053Z,7.57
2019-06-27T02:28:53.704Z,7.40
2019-06-27T02:31:20.796Z,8.30
2019-06-27T02:33:48.003Z,7.57
2019-06-27T02:36:15.437Z,8.27
2019-06-27T02:38:42.635Z,8.30
2019-06-27T02:41:09.830Z,8.20
2019-06-27T02:43:37.135Z,8.50
2019-06-27T02:46:04.461Z,8.17
2019-06-27T02:48:31.817Z,8.43
2019-06-27T02:50:59.214Z,8.00
2019-06-27T02:53:26.465Z,8.20
2019-06-27T02:55:53.729Z,7.73
2019-06-27T02:58:31.065Z,6.90
2019-06-27T03:00:50.733Z,7.27
2019-06-27T03:03:18.069Z,6.63
2019-06-27T03:05:45.206Z,7.17
2019-06-27T03:08:12.941Z,6.93
2019-06-27T03:10:40.163Z,6.23
2019-06-27T03:13:07.233Z,6.93
2019-06-27T03:15:34.439Z,6.23
2019-06-27T03:18:01.585Z,7.13
2019-06-27T03:20:29.119Z,6.27
2019-06-27T03:22:56.577Z,6.60
2019-06-27T03:25:23.793Z,7.17
2019-06-27T03:27:51.522Z,6.80
2019-06-27T03:30:18.997Z,6.57
2019-06-27T03:32:46.410Z,7.13
2019-06-27T03:35:13.596Z,6.93
2019-06-27T03:37:41.114Z,6.87
2019-06-27T03:40:09.495Z,7.80
2019-06-27T03:42:36.713Z,6.70
2019-06-27T03:45:04.373Z,5.87
2019-06-27T03:47:31.882Z,6.40
2019-06-27T03:49:59.127Z,6.70
2019-06-27T03:52:26.485Z,6.80
2019-06-27T03:54:53.853Z,6.40
2019-06-27T03:57:22.864Z,6.03
2019-06-27T03:59:49.996Z,6.20
2019-06-27T04:02:17.292Z,7.10
2019-06-27T04:04:44.474Z,6.27
2019-06-27T04:07:11.663Z,6.17
2019-06-27T04:09:39.262Z,6.73
2019-06-27T04:12:06.596Z,7.13
2019-06-27T04:14:33.879Z,6.50
2019-06-27T04:17:01.045Z,6.30
2019-06-27T04:19:28.347Z,6.80
2019-06-27T04:21:55.519Z,6.60
2019-06-27T04:24:22.777Z,6.37
2019-06-27T04:26:50.084Z,6.27
2019-06-27T04:29:33.001Z,6.50
2019-06-27T04:31:46.747Z,6.00
2019-06-27T04:34:19.254Z,6.47
2019-06-27T04:36:43.119Z,6.13
2019-06-27T04:39:10.452Z,6.30
2019-06-27T04:41:38.115Z,6.20
2019-06-27T04:44:05.311Z,5.97
2019-06-27T04:46:32.480Z,4.67
2019-06-27T04:49:00.213Z,4.93
2019-06-27T04:51:27.497Z,4.90
2019-06-27T04:53:54.741Z,5.33
2019-06-27T04:56:23.281Z,4.90
2019-06-27T04:58:50.809Z,5.50
2019-06-27T05:01:17.998Z,5.63
2019-06-27T05:03:45.180Z,5.17
2019-06-27T05:06:12.510Z,4.47
2019-06-27T05:08:39.714Z,4.90
2019-06-27T05:11:06.939Z,5.10
2019-06-27T05:13:34.133Z,4.73
2019-06-27T05:16:01.785Z,5.23
2019-06-27T05:18:29.059Z,4.20
2019-06-27T05:20:56.420Z,4.70
2019-06-27T05:23:23.711Z,4.47
2019-06-27T05:25:51.425Z,3.70
2019-06-27T05:28:18.680Z,4.00
2019-06-27T05:30:45.911Z,3.63
2019-06-27T05:33:13.120Z,4.30
2019-06-27T05:35:40.202Z,3.50
2019-06-27T05:38:07.404Z,3.53
2019-06-27T05:40:34.835Z,4.00
2019-06-27T05:43:02.135Z,4.23
2019-06-27T05:45:29.662Z,3.83
2019-06-27T05:47:56.776Z,4.47
2019-06-27T05:50:24.072Z,3.70
2019-06-27T05:52:51.286Z,3.13
2019-06-27T05:55:18.857Z,4.40
2019-06-27T05:57:46.104Z,5.07
2019-06-27T06:00:27.563Z,3.53
2019-06-27T06:02:44.076Z,3.77
2019-06-27T06:05:11.170Z,3.77
2019-06-27T06:07:39.009Z,4.47
2019-06-27T06:10:06.485Z,3.57
2019-06-27T06:12:33.816Z,3.60
2019-06-27T06:15:00.993Z,3.97
2019-06-27T06:17:28.941Z,4.00
2019-06-27T06:19:56.213Z,3.57
2019-06-27T06:22:23.458Z,3.00
2019-06-27T06:24:51.234Z,3.00
2019-06-27T06:27:18.628Z,3.40
2019-06-27T06:29:45.986Z,3.97
2019-06-27T06:32:14.308Z,3.70
2019-06-27T06:34:41.497Z,3.20
2019-06-27T06:37:09.249Z,3.03
2019-06-27T06:39:36.497Z,3.60
2019-06-27T06:42:03.608Z,3.10
2019-06-27T06:44:30.895Z,3.43
2019-06-27T06:46:58.035Z,3.37
2019-06-27T06:49:25.231Z,2.90
2019-06-27T06:51:52.333Z,3.87
2019-06-27T06:54:19.527Z,3.30
2019-06-27T06:56:46.728Z,3.40
2019-06-27T06:59:14.215Z,3.60
2019-06-27T07:01:41.351Z,3.07
2019-06-27T07:04:08.877Z,3.00
2019-06-27T07:06:36.179Z,2.67
2019-06-27T07:09:04.501Z,3.03
2019-06-27T07:11:33.874Z,2.70
2019-06-27T07:14:01.062Z,3.47
2019-06-27T07:16:28.401Z,3.43
2019-06-27T07:18:55.937Z,2.90
2019-06-27T07:21:23.122Z,3.00
2019-06-27T07:23:50.237Z,2.30
2019-06-27T07:26:17.453Z,2.23
2019-06-27T07:28:44.554Z,2.23
2019-06-27T07:31:17.882Z,2.50
2019-06-27T07:33:41.068Z,2.20
2019-06-27T07:36:08.819Z,2.08
2019-06-27T07:38:36.046Z,2.45
2019-06-27T07:41:03.236Z,1.95
2019-06-27T07:43:30.421Z,1.80
2019-06-27T07:45:57.724Z,1.70
2019-06-27T07:48:24.998Z,1.92
2019-06-27T07:50:52.087Z,1.80
2019-06-27T07:53:19.274Z,2.10
2019-06-27T07:55:46.526Z,2.02
2019-06-27T07:58:13.677Z,2.33
2019-06-27T08:00:40.976Z,1.75
2019-06-27T08:03:08.032Z,1.50
2019-06-27T08:05:35.238Z,1.45
2019-06-27T08:08:02.427Z,2.00
2019-06-27T08:10:30.627Z,2.10
2019-06-27T08:12:57.740Z,2.08
2019-06-27T08:15:25.296Z,1.85
2019-06-27T08:17:52.372Z,1.87
2019-06-27T08:20:19.536Z,1.85
2019-06-27T08:22:46.747Z,1.60
2019-06-27T08:25:14.230Z,1.87
2019-06-27T08:27:41.388Z,1.37
2019-06-27T08:30:09.308Z,2.10
2019-06-27T08:32:36.551Z,1.80
2019-06-27T08:35:04.576Z,1.85
2019-06-27T08:37:31.816Z,1.77
2019-06-27T08:39:58.994Z,1.98
2019-06-27T08:42:26.214Z,1.75
2019-06-27T08:44:53.644Z,1.90
2019-06-27T08:47:20.813Z,1.57
2019-06-27T08:49:47.965Z,1.60
2019-06-27T08:52:15.055Z,1.80
2019-06-27T08:54:42.341Z,1.62
2019-06-27T08:57:09.400Z,1.60
2019-06-27T08:59:37.019Z,1.60
2019-06-27T09:02:09.051Z,1.52
2019-06-27T09:04:33.658Z,1.10
2019-06-27T09:07:00.842Z,1.47
2019-06-27T09:09:28.030Z,1.40
2019-06-27T09:11:55.300Z,1.40
2019-06-27T09:14:22.603Z,1.40
2019-06-27T09:16:49.863Z,1.80
2019-06-27T09:19:17.141Z,1.17
2019-06-27T09:21:44.536Z,1.30
2019-06-27T09:24:11.827Z,1.40
2019-06-27T09:26:38.995Z,1.70
2019-06-27T09:29:06.263Z,1.25
2019-06-27T09:31:33.421Z,1.30
2019-06-27T09:34:00.488Z,1.55
2019-06-27T09:36:28.079Z,1.60
2019-06-27T09:38:55.294Z,1.67
2019-06-27T09:41:22.663Z,2.00
2019-06-27T09:43:50.070Z,1.72
2019-06-27T09:46:17.260Z,1.50
2019-06-27T09:48:44.432Z,1.72
2019-06-27T09:51:11.634Z,1.70
2019-06-27T09:53:39.033Z,1.50
2019-06-27T09:56:06.223Z,1.42
2019-06-27T09:58:33.485Z,1.80
2019-06-27T10:01:00.671Z,1.60
2019-06-27T10:03:27.859Z,1.32
2019-06-27T10:05:55.037Z,1.82
2019-06-27T10:08:22.780Z,1.40
2019-06-27T10:10:50.063Z,1.80
2019-06-27T10:13:17.428Z,1.83
2019-06-27T10:15:44.498Z,2.03
2019-06-27T10:18:11.968Z,2.93
2019-06-27T10:20:39.169Z,2.43
2019-06-27T10:23:06.416Z,2.00
2019-06-27T10:25:33.645Z,2.23
2019-06-27T10:28:00.764Z,2.37
2019-06-27T10:30:28.598Z,2.40
2019-06-27T10:32:59.774Z,2.40
2019-06-27T10:35:25.195Z,2.10
2019-06-27T10:37:52.366Z,2.07
2019-06-27T10:40:20.728Z,1.73
2019-06-27T10:42:47.979Z,1.97
2019-06-27T10:45:15.286Z,1.73
2019-06-27T10:47:42.403Z,1.53
2019-06-27T10:50:10.799Z,1.93
2019-06-27T10:52:37.976Z,1.93
2019-06-27T10:55:05.964Z,2.60
2019-06-27T10:57:33.091Z,1.60
2019-06-27T11:00:00.188Z,1.30
2019-06-27T11:02:27.282Z,1.50
2019-06-27T11:04:54.603Z,1.53
2019-06-27T11:07:21.838Z,1.53
2019-06-27T11:09:50.302Z,1.80
2019-06-27T11:12:17.734Z,1.70
2019-06-27T11:14:58.255Z,1.60
2019-06-27T11:17:14.002Z,1.80
2019-06-27T11:19:51.906Z,1.70
2019-06-27T11:22:10.657Z,1.97
2019-06-27T11:24:38.211Z,1.70
2019-06-27T11:27:05.434Z,1.40
2019-06-27T11:29:32.635Z,1.70
2019-06-27T11:31:59.837Z,1.33
2019-06-27T11:34:27.953Z,3.03
2019-06-27T11:36:55.215Z,2.13
2019-06-27T11:39:23.465Z,1.57
2019-06-27T11:41:50.870Z,1.90
2019-06-27T11:44:18.009Z,1.73
2019-06-27T11:46:45.179Z,2.47
2019-06-27T11:49:12.391Z,1.60
2019-06-27T11:51:39.753Z,1.80
2019-06-27T11:54:06.979Z,1.90
2019-06-27T11:56:34.725Z,1.60
2019-06-27T11:59:01.926Z,1.33
2019-06-27T12:01:29.229Z,1.80
2019-06-27T12:03:56.448Z,2.00
2019-06-27T12:06:23.979Z,1.70
2019-06-27T12:08:51.223Z,1.57
2019-06-27T12:11:18.539Z,1.63
2019-06-27T12:13:45.726Z,1.60
2019-06-27T12:16:12.876Z,1.80
2019-06-27T12:18:40.121Z,3.43
2019-06-27T12:21:07.399Z,1.60
2019-06-27T12:23:34.564Z,2.00
2019-06-27T12:26:01.695Z,1.60
2019-06-27T12:28:28.969Z,1.60
2019-06-27T12:30:56.150Z,1.60
2019-06-27T12:33:23.810Z,1.83
2019-06-27T12:35:50.881Z,1.20
2019-06-27T12:38:18.055Z,1.30
2019-06-27T12:40:45.273Z,1.80
2019-06-27T12:43:14.533Z,1.43
2019-06-27T12:45:42.038Z,1.83
2019-06-27T12:48:09.146Z,1.20
2019-06-27T12:50:36.188Z,1.27
2019-06-27T12:53:03.379Z,1.40
2019-06-27T12:55:30.568Z,4.53
2019-06-27T12:57:57.760Z,1.80
2019-06-27T13:00:25.090Z,1.00
2019-06-27T13:02:52.508Z,1.70
2019-06-27T13:05:20.770Z,2.33
2019-06-27T13:07:47.996Z,1.60
2019-06-27T13:10:15.865Z,1.20
2019-06-27T13:12:42.949Z,1.00
2019-06-27T13:15:11.510Z,1.50
2019-06-27T13:17:38.618Z,1.90
2019-06-27T13:20:06.894Z,1.30
2019-06-27T13:22:34.261Z,1.50
2019-06-27T13:25:01.679Z,1.43
2019-06-27T13:27:29.210Z,1.50
2019-06-27T13:29:56.322Z,1.33
2019-06-27T13:32:25.471Z,1.67
2019-06-27T13:34:52.676Z,1.70
2019-06-27T13:37:20.170Z,1.17
2019-06-27T13:39:47.306Z,1.70
2019-06-27T13:42:14.547Z,1.20
2019-06-27T13:44:41.728Z,1.47
2019-06-27T13:47:08.988Z,1.40
2019-06-27T13:49:36.148Z,1.90
2019-06-27T13:52:03.360Z,1.73
2019-06-27T13:54:30.808Z,1.97
2019-06-27T13:56:58.376Z,1.67
2019-06-27T13:59:25.527Z,1.40
2019-06-27T14:01:52.895Z,1.33
2019-06-27T14:04:24.009Z,1.40
2019-06-27T14:06:49.207Z,1.60
2019-06-27T14:09:23.145Z,1.50
2019-06-27T14:11:45.491Z,1.40
2019-06-27T14:14:12.998Z,1.50
2019-06-27T14:16:40.541Z,1.43
2019-06-27T14:19:07.711Z,1.40
2019-06-27T14:21:34.893Z,1.70
2019-06-27T14:24:02.068Z,1.47
2019-06-27T14:26:29.476Z,1.80
2019-06-27T14:28:57.126Z,1.77
2019-06-27T14:31:24.435Z,1.77
2019-06-27T14:33:51.618Z,1.50
2019-06-27T14:36:18.717Z,1.80
2019-06-27T14:38:45.934Z,1.60
2019-06-27T14:41:13.098Z,1.50
2019-06-27T14:43:40.699Z,1.50
2019-06-27T14:46:07.928Z,1.80
2019-06-27T14:48:35.499Z,1.47
2019-06-27T14:51:02.978Z,1.53
2019-06-27T14:53:30.264Z,1.57
2019-06-27T14:55:57.419Z,2.00
2019-06-27T14:58:24.626Z,1.60
2019-06-27T15:00:51.837Z,1.70
2019-06-27T15:03:18.999Z,1.50
2019-06-27T15:05:46.091Z,1.60
2019-06-27T15:08:13.318Z,1.60
2019-06-27T15:10:40.490Z,1.67
2019-06-27T15:13:07.927Z,1.70
2019-06-27T15:15:35.524Z,1.70
2019-06-27T15:18:02.662Z,2.20
2019-06-27T15:20:29.818Z,1.67
2019-06-27T15:22:56.986Z,1.87
2019-06-27T15:25:27.939Z,1.40
2019-06-27T15:27:53.405Z,2.00
2019-06-27T15:30:20.983Z,2.13
2019-06-27T15:32:48.869Z,1.80
2019-06-27T15:35:16.128Z,1.70
2019-06-27T15:37:43.554Z,2.00
2019-06-27T15:40:12.350Z,2.13
2019-06-27T15:42:39.508Z,1.70
2019-06-27T15:45:07.589Z,2.43
2019-06-27T15:47:34.801Z,2.10
2019-06-27T15:50:02.016Z,2.10
2019-06-27T15:52:29.452Z,1.47
2019-06-27T15:54:56.513Z,1.50
2019-06-27T15:57:23.815Z,1.73
2019-06-27T15:59:50.977Z,1.80
2019-06-27T16:02:18.144Z,1.93
2019-06-27T16:04:45.337Z,1.77
2019-06-27T16:07:12.738Z,1.90
2019-06-27T16:09:40.579Z,1.80
2019-06-27T16:12:08.157Z,1.50
2019-06-27T16:14:35.368Z,2.10
2019-06-27T16:17:03.038Z,2.03
2019-06-27T16:19:30.346Z,2.10
2019-06-27T16:21:57.576Z,1.80
2019-06-27T16:24:24.851Z,2.30
2019-06-27T16:26:52.175Z,2.57
2019-06-27T16:29:19.566Z,3.77
2019-06-27T16:31:46.740Z,2.03
2019-06-27T16:34:13.960Z,1.80
2019-06-27T16:36:41.276Z,2.07
2019-06-27T16:39:08.492Z,1.70
2019-06-27T16:41:35.573Z,1.77
2019-06-27T16:44:02.840Z,1.60
2019-06-27T16:46:30.138Z,2.00
2019-06-27T16:48:57.389Z,1.90
2019-06-27T16:51:24.936Z,2.20
2019-06-27T16:53:52.570Z,2.33
2019-06-27T16:56:19.875Z,1.83
2019-06-27T16:58:47.076Z,2.00
2019-06-27T17:01:14.672Z,1.90
2019-06-27T17:03:41.862Z,1.97
2019-06-27T17:06:09.218Z,2.40
2019-06-27T17:08:38.230Z,1.90
2019-06-27T17:11:05.783Z,2.00
2019-06-27T17:13:32.994Z,2.13
2019-06-27T17:16:00.210Z,1.70
2019-06-27T17:18:27.493Z,2.43
2019-06-27T17:20:54.982Z,1.80
2019-06-27T17:23:22.052Z,1.80
2019-06-27T17:25:49.281Z,2.47
2019-06-27T17:28:16.538Z,1.93
2019-06-27T17:30:44.056Z,1.73
2019-06-27T17:33:11.244Z,1.90
2019-06-27T17:35:38.365Z,1.70
2019-06-27T17:38:05.562Z,1.60
2019-06-27T17:40:32.710Z,1.90
2019-06-27T17:42:59.929Z,2.10
2019-06-27T17:45:27.092Z,1.97
2019-06-27T17:47:54.664Z,2.10
2019-06-27T17:50:21.892Z,1.67
2019-06-27T17:52:49.218Z,1.60
2019-06-27T17:55:16.742Z,1.97
2019-06-27T17:57:46.924Z,1.70
2019-06-27T18:00:13.287Z,1.50
2019-06-27T18:02:40.586Z,1.37
2019-06-27T18:05:07.886Z,1.63
2019-06-27T18:07:35.078Z,1.60
2019-06-27T18:10:02.797Z,1.30
2019-06-27T18:12:30.388Z,1.97
2019-06-27T18:14:58.058Z,1.37
2019-06-27T18:17:33.715Z,1.30
2019-06-27T18:19:54.362Z,1.90
2019-06-27T18:22:21.639Z,1.80
2019-06-27T18:24:48.880Z,1.40
2019-06-27T18:27:16.044Z,1.73
2019-06-27T18:29:43.229Z,1.57
2019-06-27T18:32:10.454Z,1.83
2019-06-27T18:34:37.773Z,1.37
2019-06-27T18:37:05.377Z,1.50
2019-06-27T18:39:32.573Z,1.50
2019-06-27T18:41:59.699Z,1.73
2019-06-27T18:44:26.885Z,1.57
2019-06-27T18:46:54.065Z,1.70
2019-06-27T18:49:21.290Z,1.70
2019-06-27T18:51:48.432Z,2.00
2019-06-27T18:54:15.612Z,1.63
2019-06-27T18:56:42.873Z,1.43
2019-06-27T18:59:10.417Z,1.70
2019-06-27T19:01:37.642Z,2.20
2019-06-27T19:04:04.851Z,1.70
2019-06-27T19:06:32.470Z,1.63
2019-06-27T19:08:59.771Z,1.77
2019-06-27T19:11:27.831Z,2.30
2019-06-27T19:13:55.042Z,2.20
2019-06-27T19:16:22.581Z,1.83
2019-06-27T19:18:54.262Z,1.73
2019-06-27T19:21:29.628Z,1.90
2019-06-27T19:24:08.076Z,1.93
2019-06-27T19:26:35.264Z,2.43
2019-06-27T19:29:02.635Z,2.00
2019-06-27T19:31:29.942Z,1.77
2019-06-27T19:33:57.195Z,1.67
2019-06-27T19:36:24.447Z,1.90
2019-06-27T19:38:52.181Z,2.03
2019-06-27T19:41:19.394Z,2.03
2019-06-27T19:43:46.741Z,2.30
2019-06-27T19:46:14.436Z,1.80
2019-06-27T19:48:45.495Z,1.97
2019-06-27T19:51:11.363Z,1.87
2019-06-27T19:53:38.653Z,1.80
2019-06-27T19:56:05.897Z,1.80
2019-06-27T19:58:33.451Z,2.33
2019-06-27T20:01:00.810Z,2.10
2019-06-27T20:03:28.569Z,1.87
2019-06-27T20:05:55.822Z,1.87
2019-06-27T20:08:23.106Z,2.20
2019-06-27T20:10:50.410Z,2.33
2019-06-27T20:13:18.022Z,1.80
2019-06-27T20:15:45.242Z,2.10
2019-06-27T20:18:15.638Z,2.60
2019-06-27T20:20:43.149Z,1.93
2019-06-27T20:23:17.167Z,2.03
2019-06-27T20:25:44.799Z,2.40
2019-06-27T20:28:12.041Z,1.80
2019-06-27T20:30:39.711Z,1.80
2019-06-27T20:33:07.484Z,1.90
2019-06-27T20:35:35.953Z,1.90
2019-06-27T20:38:03.327Z,2.53
2019-06-27T20:40:30.677Z,2.30
2019-06-27T20:42:59.280Z,2.20
2019-06-27T20:45:26.606Z,1.93
2019-06-27T20:47:55.726Z,2.13
2019-06-27T20:50:23.629Z,2.50
2019-06-27T20:52:52.234Z,2.23
2019-06-27T20:55:19.839Z,2.10
2019-06-27T20:57:47.608Z,2.30
2019-06-27T21:00:16.048Z,2.30
2019-06-27T21:02:44.051Z,1.90
2019-06-27T21:05:11.713Z,1.93
2019-06-27T21:07:39.005Z,2.30
2019-06-27T21:10:06.789Z,2.03
2019-06-27T21:12:34.225Z,2.27
2019-06-27T21:15:01.658Z,1.90
2019-06-27T21:17:29.313Z,2.50
2019-06-27T21:19:56.546Z,1.80
2019-06-27T21:22:23.911Z,1.73
2019-06-27T21:24:51.150Z,2.30
2019-06-27T21:27:18.409Z,1.63
2019-06-27T21:29:45.881Z,2.13
2019-06-27T21:32:13.161Z,1.90
2019-06-27T21:34:40.438Z,2.07
2019-06-27T21:37:08.110Z,2.00
2019-06-27T21:39:35.457Z,1.83
2019-06-27T21:42:02.775Z,2.23
2019-06-27T21:44:30.025Z,2.10
2019-06-27T21:46:57.303Z,2.20
2019-06-27T21:49:24.463Z,2.13
2019-06-27T21:51:52.061Z,2.00
2019-06-27T21:54:20.580Z,2.10
2019-06-27T21:56:47.902Z,2.20
2019-06-27T21:59:15.296Z,2.57
2019-06-27T22:01:43.068Z,2.07
2019-06-27T22:04:10.951Z,2.13
2019-06-27T22:06:38.210Z,2.27
2019-06-27T22:09:06.323Z,2.70
2019-06-27T22:11:33.834Z,1.83
2019-06-27T22:14:01.266Z,2.07
2019-06-27T22:16:28.505Z,2.63
2019-06-27T22:18:57.756Z,2.23
2019-06-27T22:21:25.352Z,2.70
2019-06-27T22:23:52.715Z,2.00
2019-06-27T22:26:19.982Z,2.30
2019-06-27T22:28:48.145Z,2.30
2019-06-27T22:31:15.383Z,2.30
2019-06-27T22:33:42.894Z,1.80
2019-06-27T22:36:10.126Z,2.03
2019-06-27T22:38:55.587Z,2.37
2019-06-27T22:41:59.183Z,2.10
2019-06-27T22:45:03.424Z,2.07
2019-06-27T22:48:07.271Z,2.70
2019-06-27T22:51:21.882Z,1.97
2019-06-27T22:53:56.789Z,2.50
2019-06-27T22:56:25.023Z,3.80
2019-06-27T22:58:52.358Z,2.20
2019-06-27T23:01:19.768Z,2.37
2019-06-27T23:03:46.968Z,2.23
2019-06-27T23:06:15.325Z,3.00
2019-06-27T23:08:42.665Z,2.80
2019-06-27T23:11:09.885Z,2.40
2019-06-27T23:13:37.183Z,2.37
2019-06-27T23:16:04.407Z,2.50
2019-06-27T23:18:31.655Z,2.53
2019-06-27T23:20:58.759Z,2.60
2019-06-27T23:23:25.926Z,2.73
2019-06-27T23:25:53.113Z,2.17
2019-06-27T23:28:20.544Z,2.63
2019-06-27T23:30:48.560Z,2.50
2019-06-27T23:33:16.001Z,2.53
2019-06-27T23:35:43.119Z,2.80
2019-06-27T23:38:10.444Z,3.00
2019-06-27T23:40:37.687Z,3.27
2019-06-27T23:43:04.940Z,3.03
2019-06-27T23:45:32.189Z,2.60
2019-06-27T23:47:59.788Z,2.13
2019-06-27T23:50:27.047Z,3.03
2019-06-27T23:52:54.311Z,2.57
2019-06-27T23:55:22.578Z,3.13
2019-06-27T23:57:50.135Z,2.60
